sensor_id;sensor_type;location;lat;lon;timestamp;P1;durP1;ratioP1;P2;durP2;ratioP2
12469;SDS011;36499;46.484;13.832;2024-02-04T00:00:55;5.93;;;2.63;;
12469;SDS011;36499;46.484;13.832;2024-02-04T00:03:22;4.40;;;2.80;;
12469;SDS011;36499;46.484;13.832;2024-02-04T00:05:50;8.07;;;2.67;;
12469;SDS011;36499;46.484;13.832;2024-02-04T00:08:17;3.97;;;2.20;;
12469;SDS011;36499;46.484;13.832;2024-02-04T00:10:44;6.13;;;2.43;;
12469;SDS011;36499;46.484;13.832;2024-02-04T00:13:10;3.93;;;2.43;;
12469;SDS011;36499;46.484;13.832;2024-02-04T00:15:37;3.33;;;2.03;;
12469;SDS011;36499;46.484;13.832;2024-02-04T00:18:04;4.20;;;2.20;;
12469;SDS011;36499;46.484;13.832;2024-02-04T00:20:31;4.03;;;2.93;;
12469;SDS011;36499;46.484;13.832;2024-02-04T00:23:00;4.10;;;2.40;;
12469;SDS011;36499;46.484;13.832;2024-02-04T00:25:26;2.50;;;1.80;;
12469;SDS011;36499;46.484;13.832;2024-02-04T00:27:54;3.47;;;2.33;;
12469;SDS011;36499;46.484;13.832;2024-02-04T00:30:21;4.70;;;2.60;;
12469;SDS011;36499;46.484;13.832;2024-02-04T00:32:47;3.83;;;2.23;;
12469;SDS011;36499;46.484;13.832;2024-02-04T00:35:14;3.43;;;2.20;;
12469;SDS011;36499;46.484;13.832;2024-02-04T00:37:41;5.13;;;2.53;;
12469;SDS011;36499;46.484;13.832;2024-02-04T00:40:10;3.33;;;2.07;;
12469;SDS011;36499;46.484;13.832;2024-02-04T00:42:37;2.67;;;1.93;;
12469;SDS011;36499;46.484;13.832;2024-02-04T00:45:04;3.60;;;2.33;;
12469;SDS011;36499;46.484;13.832;2024-02-04T00:47:31;3.90;;;2.53;;
12469;SDS011;36499;46.484;13.832;2024-02-04T00:49:58;5.13;;;2.93;;
12469;SDS011;36499;46.484;13.832;2024-02-04T00:52:24;3.30;;;2.33;;
12469;SDS011;36499;46.484;13.832;2024-02-04T00:54:51;6.73;;;3.47;;
12469;SDS011;36499;46.484;13.832;2024-02-04T00:57:19;4.20;;;2.50;;
12469;SDS011;36499;46.484;13.832;2024-02-04T00:59:46;3.53;;;2.30;;
12469;SDS011;36499;46.484;13.832;2024-02-04T01:02:12;4.50;;;2.40;;
12469;SDS011;36499;46.484;13.832;2024-02-04T01:04:39;4.63;;;2.70;;
12469;SDS011;36499;46.484;13.832;2024-02-04T01:07:06;4.63;;;2.60;;
12469;SDS011;36499;46.484;13.832;2024-02-04T01:09:33;4.33;;;2.27;;
12469;SDS011;36499;46.484;13.832;2024-02-04T01:11:59;4.10;;;2.20;;
12469;SDS011;36499;46.484;13.832;2024-02-04T01:14:27;2.50;;;1.73;;
12469;SDS011;36499;46.484;13.832;2024-02-04T01:16:54;3.33;;;1.97;;
12469;SDS011;36499;46.484;13.832;2024-02-04T01:19:21;5.03;;;2.03;;
12469;SDS011;36499;46.484;13.832;2024-02-04T01:21:47;2.90;;;1.70;;
12469;SDS011;36499;46.484;13.832;2024-02-04T01:24:14;3.97;;;1.93;;
12469;SDS011;36499;46.484;13.832;2024-02-04T01:26:41;3.80;;;1.90;;
12469;SDS011;36499;46.484;13.832;2024-02-04T01:29:07;4.03;;;1.90;;
12469;SDS011;36499;46.484;13.832;2024-02-04T01:31:36;3.97;;;2.20;;
12469;SDS011;36499;46.484;13.832;2024-02-04T01:34:03;2.40;;;1.43;;
12469;SDS011;36499;46.484;13.832;2024-02-04T01:36:29;3.40;;;1.83;;
12469;SDS011;36499;46.484;13.832;2024-02-04T01:38:56;7.20;;;2.87;;
12469;SDS011;36499;46.484;13.832;2024-02-04T01:41:23;6.13;;;3.00;;
12469;SDS011;36499;46.484;13.832;2024-02-04T01:43:52;3.90;;;2.00;;
12469;SDS011;36499;46.484;13.832;2024-02-04T01:46:19;2.87;;;1.67;;
12469;SDS011;36499;46.484;13.832;2024-02-04T01:48:47;3.27;;;1.67;;
12469;SDS011;36499;46.484;13.832;2024-02-04T01:51:14;3.73;;;1.80;;
12469;SDS011;36499;46.484;13.832;2024-02-04T01:53:42;3.07;;;1.83;;
12469;SDS011;36499;46.484;13.832;2024-02-04T01:56:12;4.60;;;2.57;;
12469;SDS011;36499;46.484;13.832;2024-02-04T01:58:39;4.77;;;2.70;;
12469;SDS011;36499;46.484;13.832;2024-02-04T02:01:06;3.00;;;1.70;;
12469;SDS011;36499;46.484;13.832;2024-02-04T02:03:33;2.87;;;1.83;;
12469;SDS011;36499;46.484;13.832;2024-02-04T02:06:03;4.07;;;2.00;;
12469;SDS011;36499;46.484;13.832;2024-02-04T02:08:31;3.67;;;2.30;;
12469;SDS011;36499;46.484;13.832;2024-02-04T02:11:01;3.30;;;2.13;;
12469;SDS011;36499;46.484;13.832;2024-02-04T02:13:34;2.73;;;1.70;;
12469;SDS011;36499;46.484;13.832;2024-02-04T02:16:06;2.67;;;1.60;;
12469;SDS011;36499;46.484;13.832;2024-02-04T02:18:40;1.40;;;1.30;;
12469;SDS011;36499;46.484;13.832;2024-02-04T02:21:19;1.87;;;1.20;;
12469;SDS011;36499;46.484;13.832;2024-02-04T02:24:02;1.33;;;1.20;;
12469;SDS011;36499;46.484;13.832;2024-02-04T02:26:34;1.67;;;1.17;;
12469;SDS011;36499;46.484;13.832;2024-02-04T02:29:03;2.07;;;1.30;;
12469;SDS011;36499;46.484;13.832;2024-02-04T02:31:30;1.80;;;1.10;;
12469;SDS011;36499;46.484;13.832;2024-02-04T02:33:57;3.07;;;1.30;;
12469;SDS011;36499;46.484;13.832;2024-02-04T02:36:24;1.23;;;1.00;;
12469;SDS011;36499;46.484;13.832;2024-02-04T02:38:57;1.80;;;1.40;;
12469;SDS011;36499;46.484;13.832;2024-02-04T02:41:29;2.07;;;1.20;;
12469;SDS011;36499;46.484;13.832;2024-02-04T02:43:58;1.47;;;1.20;;
12469;SDS011;36499;46.484;13.832;2024-02-04T02:46:26;3.03;;;1.40;;
12469;SDS011;36499;46.484;13.832;2024-02-04T02:48:53;2.03;;;1.20;;
12469;SDS011;36499;46.484;13.832;2024-02-04T02:51:20;1.93;;;1.20;;
12469;SDS011;36499;46.484;13.832;2024-02-04T02:53:47;1.47;;;1.23;;
12469;SDS011;36499;46.484;13.832;2024-02-04T02:56:14;2.50;;;1.30;;
12469;SDS011;36499;46.484;13.832;2024-02-04T02:58:40;2.30;;;1.10;;
12469;SDS011;36499;46.484;13.832;2024-02-04T03:01:08;1.70;;;1.30;;
12469;SDS011;36499;46.484;13.832;2024-02-04T03:03:35;1.97;;;1.20;;
12469;SDS011;36499;46.484;13.832;2024-02-04T03:06:02;2.63;;;1.13;;
12469;SDS011;36499;46.484;13.832;2024-02-04T03:08:29;2.03;;;1.20;;
12469;SDS011;36499;46.484;13.832;2024-02-04T03:10:55;1.40;;;1.10;;
12469;SDS011;36499;46.484;13.832;2024-02-04T03:13:22;1.73;;;1.30;;
12469;SDS011;36499;46.484;13.832;2024-02-04T03:15:49;2.03;;;1.23;;
12469;SDS011;36499;46.484;13.832;2024-02-04T03:18:17;1.80;;;1.20;;
12469;SDS011;36499;46.484;13.832;2024-02-04T03:20:43;1.73;;;1.10;;
12469;SDS011;36499;46.484;13.832;2024-02-04T03:23:10;1.50;;;1.17;;
12469;SDS011;36499;46.484;13.832;2024-02-04T03:25:37;1.83;;;1.20;;
12469;SDS011;36499;46.484;13.832;2024-02-04T03:28:03;1.40;;;1.00;;
12469;SDS011;36499;46.484;13.832;2024-02-04T03:30:30;1.77;;;1.20;;
12469;SDS011;36499;46.484;13.832;2024-02-04T03:32:57;1.93;;;1.37;;
12469;SDS011;36499;46.484;13.832;2024-02-04T03:35:25;1.80;;;1.30;;
12469;SDS011;36499;46.484;13.832;2024-02-04T03:37:52;1.30;;;1.17;;
12469;SDS011;36499;46.484;13.832;2024-02-04T03:40:18;1.40;;;1.30;;
12469;SDS011;36499;46.484;13.832;2024-02-04T03:42:49;1.77;;;1.10;;
12469;SDS011;36499;46.484;13.832;2024-02-04T03:45:16;5.37;;;1.50;;
12469;SDS011;36499;46.484;13.832;2024-02-04T03:47:43;3.40;;;1.43;;
12469;SDS011;36499;46.484;13.832;2024-02-04T03:50:09;1.17;;;1.07;;
12469;SDS011;36499;46.484;13.832;2024-02-04T03:52:37;1.53;;;1.10;;
12469;SDS011;36499;46.484;13.832;2024-02-04T03:55:05;1.77;;;1.20;;
12469;SDS011;36499;46.484;13.832;2024-02-04T03:57:32;1.77;;;1.20;;
12469;SDS011;36499;46.484;13.832;2024-02-04T03:59:59;1.27;;;1.17;;
12469;SDS011;36499;46.484;13.832;2024-02-04T04:02:26;1.43;;;1.27;;
12469;SDS011;36499;46.484;13.832;2024-02-04T04:04:53;1.10;;;0.90;;
12469;SDS011;36499;46.484;13.832;2024-02-04T04:07:19;1.13;;;1.00;;
12469;SDS011;36499;46.484;13.832;2024-02-04T04:09:47;0.80;;;0.80;;
12469;SDS011;36499;46.484;13.832;2024-02-04T04:12:14;1.00;;;0.90;;
12469;SDS011;36499;46.484;13.832;2024-02-04T04:14:41;1.57;;;1.00;;
12469;SDS011;36499;46.484;13.832;2024-02-04T04:17:07;1.80;;;1.20;;
12469;SDS011;36499;46.484;13.832;2024-02-04T04:19:34;1.80;;;1.10;;
12469;SDS011;36499;46.484;13.832;2024-02-04T04:22:02;3.67;;;1.07;;
12469;SDS011;36499;46.484;13.832;2024-02-04T04:24:28;2.23;;;1.40;;
12469;SDS011;36499;46.484;13.832;2024-02-04T04:26:56;1.83;;;1.00;;
12469;SDS011;36499;46.484;13.832;2024-02-04T04:29:23;2.10;;;1.07;;
12469;SDS011;36499;46.484;13.832;2024-02-04T04:31:51;3.67;;;1.27;;
12469;SDS011;36499;46.484;13.832;2024-02-04T04:34:18;1.70;;;1.10;;
12469;SDS011;36499;46.484;13.832;2024-02-04T04:36:45;1.10;;;1.00;;
12469;SDS011;36499;46.484;13.832;2024-02-04T04:39:11;1.90;;;1.00;;
12469;SDS011;36499;46.484;13.832;2024-02-04T04:41:40;2.70;;;1.97;;
12469;SDS011;36499;46.484;13.832;2024-02-04T04:44:09;5.03;;;3.07;;
12469;SDS011;36499;46.484;13.832;2024-02-04T04:46:37;2.43;;;1.37;;
12469;SDS011;36499;46.484;13.832;2024-02-04T04:49:04;2.80;;;2.00;;
12469;SDS011;36499;46.484;13.832;2024-02-04T04:51:31;2.00;;;1.20;;
12469;SDS011;36499;46.484;13.832;2024-02-04T04:53:58;1.20;;;1.00;;
12469;SDS011;36499;46.484;13.832;2024-02-04T04:56:25;1.40;;;1.00;;
12469;SDS011;36499;46.484;13.832;2024-02-04T04:58:52;1.47;;;1.00;;
12469;SDS011;36499;46.484;13.832;2024-02-04T05:01:20;1.10;;;1.00;;
12469;SDS011;36499;46.484;13.832;2024-02-04T05:03:47;3.17;;;2.17;;
12469;SDS011;36499;46.484;13.832;2024-02-04T05:06:13;5.17;;;2.53;;
12469;SDS011;36499;46.484;13.832;2024-02-04T05:08:40;2.20;;;1.50;;
12469;SDS011;36499;46.484;13.832;2024-02-04T05:11:07;1.70;;;1.33;;
12469;SDS011;36499;46.484;13.832;2024-02-04T05:13:33;0.80;;;0.80;;
12469;SDS011;36499;46.484;13.832;2024-02-04T05:16:00;1.60;;;1.30;;
12469;SDS011;36499;46.484;13.832;2024-02-04T05:18:28;3.37;;;1.43;;
12469;SDS011;36499;46.484;13.832;2024-02-04T05:20:55;3.00;;;1.43;;
12469;SDS011;36499;46.484;13.832;2024-02-04T05:23:21;1.67;;;1.23;;
12469;SDS011;36499;46.484;13.832;2024-02-04T05:25:48;3.53;;;1.50;;
12469;SDS011;36499;46.484;13.832;2024-02-04T05:28:15;3.10;;;2.00;;
12469;SDS011;36499;46.484;13.832;2024-02-04T05:30:41;2.27;;;1.40;;
12469;SDS011;36499;46.484;13.832;2024-02-04T05:33:08;2.70;;;1.57;;
12469;SDS011;36499;46.484;13.832;2024-02-04T05:35:36;4.00;;;1.60;;
12469;SDS011;36499;46.484;13.832;2024-02-04T05:38:03;2.53;;;1.57;;
12469;SDS011;36499;46.484;13.832;2024-02-04T05:40:30;3.20;;;1.63;;
12469;SDS011;36499;46.484;13.832;2024-02-04T05:42:56;1.80;;;1.40;;
12469;SDS011;36499;46.484;13.832;2024-02-04T05:45:23;1.73;;;1.30;;
12469;SDS011;36499;46.484;13.832;2024-02-04T05:47:50;2.63;;;1.50;;
12469;SDS011;36499;46.484;13.832;2024-02-04T05:50:16;2.00;;;1.23;;
12469;SDS011;36499;46.484;13.832;2024-02-04T05:52:44;1.93;;;1.37;;
12469;SDS011;36499;46.484;13.832;2024-02-04T05:55:11;2.57;;;1.40;;
12469;SDS011;36499;46.484;13.832;2024-02-04T05:57:38;2.17;;;1.70;;
12469;SDS011;36499;46.484;13.832;2024-02-04T06:00:05;2.50;;;1.60;;
12469;SDS011;36499;46.484;13.832;2024-02-04T06:02:33;3.47;;;1.90;;
12469;SDS011;36499;46.484;13.832;2024-02-04T06:04:59;2.40;;;1.27;;
12469;SDS011;36499;46.484;13.832;2024-02-04T06:07:26;4.03;;;2.03;;
12469;SDS011;36499;46.484;13.832;2024-02-04T06:09:54;3.00;;;1.90;;
12469;SDS011;36499;46.484;13.832;2024-02-04T06:12:22;3.90;;;1.80;;
12469;SDS011;36499;46.484;13.832;2024-02-04T06:14:49;2.77;;;2.40;;
12469;SDS011;36499;46.484;13.832;2024-02-04T06:17:16;2.80;;;2.10;;
12469;SDS011;36499;46.484;13.832;2024-02-04T06:19:42;5.37;;;3.00;;
12469;SDS011;36499;46.484;13.832;2024-02-04T06:22:09;4.47;;;2.13;;
12469;SDS011;36499;46.484;13.832;2024-02-04T06:24:36;3.97;;;1.90;;
12469;SDS011;36499;46.484;13.832;2024-02-04T06:27:07;1.47;;;1.20;;
12469;SDS011;36499;46.484;13.832;2024-02-04T06:29:34;2.40;;;1.60;;
12469;SDS011;36499;46.484;13.832;2024-02-04T06:32:02;2.77;;;1.73;;
12469;SDS011;36499;46.484;13.832;2024-02-04T06:34:29;2.20;;;1.40;;
12469;SDS011;36499;46.484;13.832;2024-02-04T06:36:56;1.50;;;1.00;;
12469;SDS011;36499;46.484;13.832;2024-02-04T06:39:22;1.53;;;1.30;;
12469;SDS011;36499;46.484;13.832;2024-02-04T06:41:49;4.57;;;1.40;;
12469;SDS011;36499;46.484;13.832;2024-02-04T06:44:17;3.03;;;1.60;;
12469;SDS011;36499;46.484;13.832;2024-02-04T06:46:44;2.07;;;1.60;;
12469;SDS011;36499;46.484;13.832;2024-02-04T06:49:11;4.10;;;1.97;;
12469;SDS011;36499;46.484;13.832;2024-02-04T06:51:43;4.50;;;1.80;;
12469;SDS011;36499;46.484;13.832;2024-02-04T06:54:09;5.07;;;1.67;;
12469;SDS011;36499;46.484;13.832;2024-02-04T06:56:36;1.70;;;1.30;;
12469;SDS011;36499;46.484;13.832;2024-02-04T06:59:03;3.27;;;1.80;;
12469;SDS011;36499;46.484;13.832;2024-02-04T07:01:31;3.53;;;1.53;;
12469;SDS011;36499;46.484;13.832;2024-02-04T07:03:58;2.00;;;1.47;;
12469;SDS011;36499;46.484;13.832;2024-02-04T07:06:37;1.90;;;1.40;;
12469;SDS011;36499;46.484;13.832;2024-02-04T07:09:03;3.03;;;1.53;;
12469;SDS011;36499;46.484;13.832;2024-02-04T07:11:30;2.73;;;1.50;;
12469;SDS011;36499;46.484;13.832;2024-02-04T07:13:57;4.20;;;1.57;;
12469;SDS011;36499;46.484;13.832;2024-02-04T07:16:25;1.50;;;1.40;;
12469;SDS011;36499;46.484;13.832;2024-02-04T07:18:54;1.97;;;1.10;;
12469;SDS011;36499;46.484;13.832;2024-02-04T07:21:21;4.17;;;2.10;;
12469;SDS011;36499;46.484;13.832;2024-02-04T07:23:48;2.37;;;1.70;;
12469;SDS011;36499;46.484;13.832;2024-02-04T07:26:14;2.83;;;2.00;;
12469;SDS011;36499;46.484;13.832;2024-02-04T07:28:41;4.37;;;2.30;;
12469;SDS011;36499;46.484;13.832;2024-02-04T07:31:08;3.50;;;2.33;;
12469;SDS011;36499;46.484;13.832;2024-02-04T07:33:34;5.10;;;2.50;;
12469;SDS011;36499;46.484;13.832;2024-02-04T07:36:03;3.63;;;1.90;;
12469;SDS011;36499;46.484;13.832;2024-02-04T07:38:30;7.80;;;3.83;;
12469;SDS011;36499;46.484;13.832;2024-02-04T07:40:56;3.23;;;2.10;;
12469;SDS011;36499;46.484;13.832;2024-02-04T07:43:24;2.97;;;1.37;;
12469;SDS011;36499;46.484;13.832;2024-02-04T07:45:51;2.83;;;1.90;;
12469;SDS011;36499;46.484;13.832;2024-02-04T07:48:18;3.50;;;1.97;;
12469;SDS011;36499;46.484;13.832;2024-02-04T07:50:44;5.30;;;1.87;;
12469;SDS011;36499;46.484;13.832;2024-02-04T07:53:13;3.60;;;2.27;;
12469;SDS011;36499;46.484;13.832;2024-02-04T07:55:39;2.20;;;1.50;;
12469;SDS011;36499;46.484;13.832;2024-02-04T07:58:06;3.80;;;2.23;;
12469;SDS011;36499;46.484;13.832;2024-02-04T08:00:33;4.23;;;2.30;;
12469;SDS011;36499;46.484;13.832;2024-02-04T08:03:00;2.87;;;2.30;;
12469;SDS011;36499;46.484;13.832;2024-02-04T08:05:27;3.10;;;2.03;;
12469;SDS011;36499;46.484;13.832;2024-02-04T08:07:54;5.53;;;2.80;;
12469;SDS011;36499;46.484;13.832;2024-02-04T08:10:22;2.93;;;2.00;;
12469;SDS011;36499;46.484;13.832;2024-02-04T08:12:48;2.20;;;1.50;;
12469;SDS011;36499;46.484;13.832;2024-02-04T08:15:17;5.57;;;1.90;;
12469;SDS011;36499;46.484;13.832;2024-02-04T08:17:44;5.30;;;2.93;;
12469;SDS011;36499;46.484;13.832;2024-02-04T08:20:11;2.80;;;1.90;;
12469;SDS011;36499;46.484;13.832;2024-02-04T08:22:38;3.57;;;2.20;;
12469;SDS011;36499;46.484;13.832;2024-02-04T08:25:05;2.97;;;1.40;;
12469;SDS011;36499;46.484;13.832;2024-02-04T08:27:33;1.20;;;1.00;;
12469;SDS011;36499;46.484;13.832;2024-02-04T08:30:00;3.03;;;1.57;;
12469;SDS011;36499;46.484;13.832;2024-02-04T08:32:27;3.50;;;1.90;;
12469;SDS011;36499;46.484;13.832;2024-02-04T08:34:54;3.60;;;1.67;;
12469;SDS011;36499;46.484;13.832;2024-02-04T08:37:20;2.43;;;1.27;;
12469;SDS011;36499;46.484;13.832;2024-02-04T08:39:47;1.93;;;1.40;;
12469;SDS011;36499;46.484;13.832;2024-02-04T08:42:14;2.07;;;1.50;;
12469;SDS011;36499;46.484;13.832;2024-02-04T08:44:43;2.10;;;1.40;;
12469;SDS011;36499;46.484;13.832;2024-02-04T08:47:09;2.97;;;2.00;;
12469;SDS011;36499;46.484;13.832;2024-02-04T08:49:39;2.87;;;1.70;;
12469;SDS011;36499;46.484;13.832;2024-02-04T08:52:05;2.17;;;1.50;;
12469;SDS011;36499;46.484;13.832;2024-02-04T08:54:32;1.50;;;1.20;;
12469;SDS011;36499;46.484;13.832;2024-02-04T08:56:59;1.50;;;1.20;;
12469;SDS011;36499;46.484;13.832;2024-02-04T08:59:25;1.60;;;1.10;;
12469;SDS011;36499;46.484;13.832;2024-02-04T09:01:53;2.43;;;1.30;;
12469;SDS011;36499;46.484;13.832;2024-02-04T09:04:20;2.27;;;1.60;;
12469;SDS011;36499;46.484;13.832;2024-02-04T09:06:47;2.83;;;1.60;;
12469;SDS011;36499;46.484;13.832;2024-02-04T09:09:13;1.27;;;1.00;;
12469;SDS011;36499;46.484;13.832;2024-02-04T09:11:40;1.10;;;0.70;;
12469;SDS011;36499;46.484;13.832;2024-02-04T09:14:07;1.60;;;0.80;;
12469;SDS011;36499;46.484;13.832;2024-02-04T09:16:33;0.70;;;0.70;;
12469;SDS011;36499;46.484;13.832;2024-02-04T09:19:05;1.00;;;0.80;;
12469;SDS011;36499;46.484;13.832;2024-02-04T09:21:31;2.93;;;1.30;;
12469;SDS011;36499;46.484;13.832;2024-02-04T09:23:58;1.23;;;1.00;;
12469;SDS011;36499;46.484;13.832;2024-02-04T09:26:25;1.50;;;1.03;;
12469;SDS011;36499;46.484;13.832;2024-02-04T09:28:51;0.60;;;0.60;;
12469;SDS011;36499;46.484;13.832;2024-02-04T09:31:18;0.30;;;0.30;;
12469;SDS011;36499;46.484;13.832;2024-02-04T09:33:45;0.50;;;0.50;;
12469;SDS011;36499;46.484;13.832;2024-02-04T09:36:13;0.50;;;0.50;;
12469;SDS011;36499;46.484;13.832;2024-02-04T09:38:40;1.37;;;1.17;;
12469;SDS011;36499;46.484;13.832;2024-02-04T09:41:06;1.23;;;1.00;;
12469;SDS011;36499;46.484;13.832;2024-02-04T09:43:33;0.50;;;0.50;;
12469;SDS011;36499;46.484;13.832;2024-02-04T09:46:02;0.43;;;0.43;;
12469;SDS011;36499;46.484;13.832;2024-02-04T09:48:30;0.90;;;0.60;;
12469;SDS011;36499;46.484;13.832;2024-02-04T09:50:58;0.60;;;0.60;;
12469;SDS011;36499;46.484;13.832;2024-02-04T09:53:33;1.20;;;0.70;;
12469;SDS011;36499;46.484;13.832;2024-02-04T09:56:01;2.40;;;1.10;;
12469;SDS011;36499;46.484;13.832;2024-02-04T09:58:31;0.80;;;0.60;;
12469;SDS011;36499;46.484;13.832;2024-02-04T10:00:58;1.07;;;0.57;;
12469;SDS011;36499;46.484;13.832;2024-02-04T10:03:26;0.60;;;0.60;;
12469;SDS011;36499;46.484;13.832;2024-02-04T10:05:53;1.47;;;0.77;;
12469;SDS011;36499;46.484;13.832;2024-02-04T10:08:20;0.80;;;0.80;;
12469;SDS011;36499;46.484;13.832;2024-02-04T10:10:48;1.40;;;0.70;;
12469;SDS011;36499;46.484;13.832;2024-02-04T10:13:15;0.73;;;0.60;;
12469;SDS011;36499;46.484;13.832;2024-02-04T10:15:41;0.47;;;0.43;;
12469;SDS011;36499;46.484;13.832;2024-02-04T10:18:08;0.40;;;0.40;;
12469;SDS011;36499;46.484;13.832;2024-02-04T10:20:35;1.00;;;0.60;;
12469;SDS011;36499;46.484;13.832;2024-02-04T10:23:02;1.67;;;0.80;;
12469;SDS011;36499;46.484;13.832;2024-02-04T10:25:29;3.00;;;0.90;;
12469;SDS011;36499;46.484;13.832;2024-02-04T10:27:58;3.33;;;1.30;;
12469;SDS011;36499;46.484;13.832;2024-02-04T10:30:25;3.73;;;1.37;;
12469;SDS011;36499;46.484;13.832;2024-02-04T10:32:52;0.77;;;0.77;;
12469;SDS011;36499;46.484;13.832;2024-02-04T10:35:20;0.60;;;0.60;;
12469;SDS011;36499;46.484;13.832;2024-02-04T10:37:48;1.17;;;0.70;;
12469;SDS011;36499;46.484;13.832;2024-02-04T10:40:14;0.60;;;0.60;;
12469;SDS011;36499;46.484;13.832;2024-02-04T10:42:42;1.17;;;0.80;;
12469;SDS011;36499;46.484;13.832;2024-02-04T10:45:11;1.23;;;0.80;;
12469;SDS011;36499;46.484;13.832;2024-02-04T10:47:39;0.60;;;0.60;;
12469;SDS011;36499;46.484;13.832;2024-02-04T10:50:07;1.10;;;0.90;;
12469;SDS011;36499;46.484;13.832;2024-02-04T10:52:35;3.50;;;1.00;;
12469;SDS011;36499;46.484;13.832;2024-02-04T10:55:05;1.97;;;0.90;;
12469;SDS011;36499;46.484;13.832;2024-02-04T10:57:34;1.53;;;1.20;;
12469;SDS011;36499;46.484;13.832;2024-02-04T11:00:01;1.73;;;1.20;;
12469;SDS011;36499;46.484;13.832;2024-02-04T11:02:35;2.27;;;1.30;;
12469;SDS011;36499;46.484;13.832;2024-02-04T11:05:02;1.17;;;1.07;;
12469;SDS011;36499;46.484;13.832;2024-02-04T11:07:31;1.80;;;1.27;;
12469;SDS011;36499;46.484;13.832;2024-02-04T11:09:58;1.40;;;1.17;;
12469;SDS011;36499;46.484;13.832;2024-02-04T11:12:26;1.93;;;1.50;;
12469;SDS011;36499;46.484;13.832;2024-02-04T11:14:55;3.43;;;1.60;;
12469;SDS011;36499;46.484;13.832;2024-02-04T11:17:32;1.47;;;1.20;;
12469;SDS011;36499;46.484;13.832;2024-02-04T11:20:22;2.20;;;1.60;;
12469;SDS011;36499;46.484;13.832;2024-02-04T11:23:05;8.30;;;5.43;;
12469;SDS011;36499;46.484;13.832;2024-02-04T11:25:53;3.87;;;2.70;;
12469;SDS011;36499;46.484;13.832;2024-02-04T11:28:22;4.93;;;1.60;;
12469;SDS011;36499;46.484;13.832;2024-02-04T11:30:50;7.73;;;3.90;;
12469;SDS011;36499;46.484;13.832;2024-02-04T11:33:19;4.03;;;2.40;;
12469;SDS011;36499;46.484;13.832;2024-02-04T11:35:58;3.47;;;1.90;;
12469;SDS011;36499;46.484;13.832;2024-02-04T11:38:29;1.80;;;1.40;;
12469;SDS011;36499;46.484;13.832;2024-02-04T11:40:57;1.93;;;1.63;;
12469;SDS011;36499;46.484;13.832;2024-02-04T11:43:23;2.33;;;1.33;;
12469;SDS011;36499;46.484;13.832;2024-02-04T11:45:51;4.23;;;1.90;;
12469;SDS011;36499;46.484;13.832;2024-02-04T11:48:28;2.70;;;1.70;;
12469;SDS011;36499;46.484;13.832;2024-02-04T11:50:57;2.83;;;2.20;;
12469;SDS011;36499;46.484;13.832;2024-02-04T11:53:24;6.23;;;2.00;;
12469;SDS011;36499;46.484;13.832;2024-02-04T11:55:54;1.40;;;1.20;;
12469;SDS011;36499;46.484;13.832;2024-02-04T11:58:20;1.40;;;1.10;;
12469;SDS011;36499;46.484;13.832;2024-02-04T12:00:50;5.57;;;1.80;;
12469;SDS011;36499;46.484;13.832;2024-02-04T12:03:28;1.87;;;1.23;;
12469;SDS011;36499;46.484;13.832;2024-02-04T12:05:56;2.03;;;1.63;;
12469;SDS011;36499;46.484;13.832;2024-02-04T12:08:23;2.63;;;1.50;;
12469;SDS011;36499;46.484;13.832;2024-02-04T12:10:50;2.23;;;1.50;;
12469;SDS011;36499;46.484;13.832;2024-02-04T12:13:18;2.13;;;1.40;;
12469;SDS011;36499;46.484;13.832;2024-02-04T12:15:45;1.80;;;1.70;;
12469;SDS011;36499;46.484;13.832;2024-02-04T12:18:13;3.13;;;1.70;;
12469;SDS011;36499;46.484;13.832;2024-02-04T12:20:46;1.20;;;1.10;;
12469;SDS011;36499;46.484;13.832;2024-02-04T12:23:13;1.50;;;1.30;;
12469;SDS011;36499;46.484;13.832;2024-02-04T12:25:40;5.57;;;1.60;;
12469;SDS011;36499;46.484;13.832;2024-02-04T12:28:07;2.47;;;1.70;;
12469;SDS011;36499;46.484;13.832;2024-02-04T12:30:34;1.20;;;1.10;;
12469;SDS011;36499;46.484;13.832;2024-02-04T12:33:02;1.77;;;1.37;;
12469;SDS011;36499;46.484;13.832;2024-02-04T12:35:30;1.70;;;1.60;;
12469;SDS011;36499;46.484;13.832;2024-02-04T12:37:59;4.07;;;1.67;;
12469;SDS011;36499;46.484;13.832;2024-02-04T12:40:26;2.33;;;1.37;;
12469;SDS011;36499;46.484;13.832;2024-02-04T12:42:54;2.20;;;1.40;;
12469;SDS011;36499;46.484;13.832;2024-02-04T12:45:21;2.60;;;1.20;;
12469;SDS011;36499;46.484;13.832;2024-02-04T12:47:49;1.00;;;1.00;;
12469;SDS011;36499;46.484;13.832;2024-02-04T12:50:17;1.33;;;1.13;;
12469;SDS011;36499;46.484;13.832;2024-02-04T12:52:44;3.00;;;1.80;;
12469;SDS011;36499;46.484;13.832;2024-02-04T12:55:23;1.83;;;1.20;;
12469;SDS011;36499;46.484;13.832;2024-02-04T12:58:00;3.07;;;1.27;;
12469;SDS011;36499;46.484;13.832;2024-02-04T13:00:29;1.10;;;0.90;;
12469;SDS011;36499;46.484;13.832;2024-02-04T13:02:56;1.83;;;0.80;;
12469;SDS011;36499;46.484;13.832;2024-02-04T13:05:22;1.10;;;0.90;;
12469;SDS011;36499;46.484;13.832;2024-02-04T13:07:51;1.90;;;1.30;;
12469;SDS011;36499;46.484;13.832;2024-02-04T13:10:23;0.97;;;0.70;;
12469;SDS011;36499;46.484;13.832;2024-02-04T13:13:00;0.60;;;0.60;;
12469;SDS011;36499;46.484;13.832;2024-02-04T13:15:27;0.57;;;0.57;;
12469;SDS011;36499;46.484;13.832;2024-02-04T13:17:54;0.60;;;0.60;;
12469;SDS011;36499;46.484;13.832;2024-02-04T13:20:21;0.73;;;0.60;;
12469;SDS011;36499;46.484;13.832;2024-02-04T13:22:48;0.60;;;0.60;;
12469;SDS011;36499;46.484;13.832;2024-02-04T13:25:14;0.50;;;0.50;;
12469;SDS011;36499;46.484;13.832;2024-02-04T13:27:42;1.13;;;1.03;;
12469;SDS011;36499;46.484;13.832;2024-02-04T13:30:09;0.50;;;0.50;;
12469;SDS011;36499;46.484;13.832;2024-02-04T13:32:37;2.13;;;0.70;;
12469;SDS011;36499;46.484;13.832;2024-02-04T13:35:05;0.40;;;0.40;;
12469;SDS011;36499;46.484;13.832;2024-02-04T13:37:33;0.40;;;0.40;;
12469;SDS011;36499;46.484;13.832;2024-02-04T13:40:01;1.80;;;0.50;;
12469;SDS011;36499;46.484;13.832;2024-02-04T13:42:28;0.47;;;0.47;;
12469;SDS011;36499;46.484;13.832;2024-02-04T13:44:56;0.40;;;0.40;;
12469;SDS011;36499;46.484;13.832;2024-02-04T13:47:23;0.50;;;0.50;;
12469;SDS011;36499;46.484;13.832;2024-02-04T13:49:50;0.70;;;0.70;;
12469;SDS011;36499;46.484;13.832;2024-02-04T13:52:16;0.70;;;0.50;;
12469;SDS011;36499;46.484;13.832;2024-02-04T13:54:43;1.37;;;0.70;;
12469;SDS011;36499;46.484;13.832;2024-02-04T13:57:10;0.40;;;0.40;;
12469;SDS011;36499;46.484;13.832;2024-02-04T13:59:37;2.17;;;0.57;;
12469;SDS011;36499;46.484;13.832;2024-02-04T14:02:05;0.63;;;0.37;;
12469;SDS011;36499;46.484;13.832;2024-02-04T14:04:33;0.93;;;0.70;;
12469;SDS011;36499;46.484;13.832;2024-02-04T14:07:00;0.97;;;0.50;;
12469;SDS011;36499;46.484;13.832;2024-02-04T14:09:27;0.70;;;0.60;;
12469;SDS011;36499;46.484;13.832;2024-02-04T14:11:54;2.40;;;0.70;;
12469;SDS011;36499;46.484;13.832;2024-02-04T14:14:22;0.90;;;0.43;;
12469;SDS011;36499;46.484;13.832;2024-02-04T14:16:49;0.50;;;0.50;;
12469;SDS011;36499;46.484;13.832;2024-02-04T14:19:17;0.40;;;0.40;;
12469;SDS011;36499;46.484;13.832;2024-02-04T14:21:44;0.60;;;0.60;;
12469;SDS011;36499;46.484;13.832;2024-02-04T14:24:10;0.60;;;0.50;;
12469;SDS011;36499;46.484;13.832;2024-02-04T14:26:38;0.37;;;0.37;;
12469;SDS011;36499;46.484;13.832;2024-02-04T14:29:06;2.67;;;0.70;;
12469;SDS011;36499;46.484;13.832;2024-02-04T14:31:33;0.50;;;0.50;;
12469;SDS011;36499;46.484;13.832;2024-02-04T14:34:00;0.50;;;0.43;;
12469;SDS011;36499;46.484;13.832;2024-02-04T14:36:28;0.77;;;0.50;;